Capt Al Devall — WCW9164 — position and weather

sailwx.info

Track history (hours):
 
Tides and Currents Weather Stations Pressure Air Temp Water Temp Dewpoint Dewpoint Depression Visibility Wind Speed Wind Dir Waves Ship Positions

Capt Al Devall

Owner: J & J DEVALL MARITIME MARINE OPERATORS, Sulphur, LA. More information available from US FCC via Universal Licensing System and Coast Guard Vessel Documentation Center.

Last reported at 2018-Sep-19 07:30 UTC. Time now 2018-Sep-19 07:40 UTC.
Position N 30°03' W 093°44'.

; draft 3 m.

Type: Towing. MMSI: 366972270.

Date/timePositionNaut miles runAvg speedWind from/ knotsBaromVisibWave heightAir tempDewpointWater temp
2018-Sep-19 07:30N 30°03' W 093°44'0 0.0
2018-Sep-19 07:00N 30°03' W 093°44'0 0.0
2018-Sep-19 06:29N 30°03' W 093°44'0 0.0
2018-Sep-19 06:04N 30°03' W 093°44'0 0.0
2018-Sep-19 06:00N 30°03' W 093°44'0 0.0
2018-Sep-19 05:31N 30°03' W 093°44'0 0.0
2018-Sep-19 05:03N 30°03' W 093°44'0 0.0
2018-Sep-19 05:00N 30°03' W 093°44'0 0.0
2018-Sep-19 04:30N 30°03' W 093°44'0 0.0
2018-Sep-19 04:03N 30°03' W 093°44'0 0.0
2018-Sep-19 04:00N 30°03' W 093°44'0 0.0
2018-Sep-19 03:30N 30°03' W 093°44'0 0.0
2018-Sep-19 03:03N 30°03' W 093°44'0 0.0
2018-Sep-19 02:58N 30°03' W 093°44'0 0.0
2018-Sep-19 02:30N 30°03' W 093°44'0 0.0
2018-Sep-19 02:03N 30°03' W 093°44'0 0.0
2018-Sep-19 01:59N 30°03' W 093°44'0 0.0
2018-Sep-19 01:30N 30°03' W 093°44'0 0.0
2018-Sep-19 01:03N 30°03' W 093°44'0 0.0
2018-Sep-19 01:00N 30°03' W 093°44'0 0.0
2018-Sep-19 00:30N 30°03' W 093°44'0 0.0
2018-Sep-19 00:03N 30°03' W 093°44'0 0.0
2018-Sep-19 00:00N 30°03' W 093°44'0 0.0
2018-Sep-18 23:30N 30°03' W 093°44'0 0.0
2018-Sep-18 23:03N 30°03' W 093°44'0 0.0
2018-Sep-18 23:01N 30°03' W 093°44'0 0.0
2018-Sep-18 22:30N 30°03' W 093°44'0 0.0
2018-Sep-18 22:03N 30°03' W 093°44'0 0.0
2018-Sep-18 22:00N 30°03' W 093°44'0 0.0
2018-Sep-18 21:30N 30°03' W 093°44'0 0.0
2018-Sep-18 21:03N 30°03' W 093°44'0 0.0
2018-Sep-18 21:00N 30°03' W 093°44'0 0.0
2018-Sep-18 20:29N 30°03' W 093°44'0 0.0
2018-Sep-18 20:03N 30°03' W 093°44'0 2.0
2018-Sep-18 20:00N 30°04' W 093°44'1 1.2
2018-Sep-18 19:30N 30°04' W 093°45'0 0.0
2018-Sep-18 19:03N 30°04' W 093°45'0 1.7
2018-Sep-18 18:59N 30°04' W 093°45'1 2.8
2018-Sep-18 18:30N 30°03' W 093°44'3 6.2
2018-Sep-18 18:03N 30°01' W 093°46'0 6.6
2018-Sep-18 18:00N 30°00' W 093°46'3 6.7
2018-Sep-18 17:31N 29°59' W 093°49'2 4.6
2018-Sep-18 17:03N 29°58' W 093°51'0 2.8
2018-Sep-18 17:00N 29°57' W 093°51'2 5.0
2018-Sep-18 16:30N 29°55' W 093°53'0 0.0
2018-Sep-18 16:03N 29°55' W 093°53'0 0.0
2018-Sep-18 16:00N 29°55' W 093°53'0 0.0
2018-Sep-18 15:30N 29°55' W 093°53'0 0.0
2018-Sep-18 15:04N 29°55' W 093°53'0 0.1
2018-Sep-18 15:01N 29°55' W 093°53'0 0.0
2018-Sep-18 14:31N 29°55' W 093°53'0 0.0
2018-Sep-18 14:00N 29°55' W 093°53'0 0.0
2018-Sep-18 13:30N 29°55' W 093°53'0 0.0
2018-Sep-18 13:02N 29°55' W 093°53'0 0.0
2018-Sep-18 13:00N 29°55' W 093°53'0 0.0
2018-Sep-18 12:31N 29°55' W 093°53'0 0.0
2018-Sep-18 12:04N 29°55' W 093°53'0 0.1
2018-Sep-18 12:00N 29°55' W 093°53'0 0.0
2018-Sep-18 11:31N 29°55' W 093°53'0 0.0
2018-Sep-18 11:03N 29°55' W 093°53'0 0.0
2018-Sep-18 11:01N 29°55' W 093°53'0 0.0
2018-Sep-18 10:31N 29°55' W 093°53'0 0.0
2018-Sep-18 10:03N 29°55' W 093°53'0 0.0
2018-Sep-18 10:00N 29°55' W 093°53'0 0.0
2018-Sep-18 09:30N 29°55' W 093°53'0 0.0
2018-Sep-18 09:03N 29°55' W 093°53'0 0.1
2018-Sep-18 09:00N 29°55' W 093°53'0 0.0
2018-Sep-18 08:31N 29°55' W 093°53'0 0.0
2018-Sep-18 08:04N 29°55' W 093°53'0 0.1
2018-Sep-18 08:00N 29°55' W 093°53'0 0.0
2018-Sep-18 07:30N 29°55' W 093°53'0 0.0
2018-Sep-18 07:04N 29°55' W 093°53'0 0.0
2018-Sep-18 07:01N 29°55' W 093°53'0 0.0
2018-Sep-18 06:30N 29°55' W 093°53'0 0.0
2018-Sep-18 06:03N 29°55' W 093°53'0 0.0
2018-Sep-18 06:01N 29°55' W 093°53'0 0.0
2018-Sep-18 05:30N 29°55' W 093°53'0 0.0
2018-Sep-18 05:03N 29°55' W 093°53'0 0.1
2018-Sep-18 05:00N 29°55' W 093°53'0 0.0
2018-Sep-18 04:31N 29°55' W 093°53'0 0.0
2018-Sep-18 04:03N 29°55' W 093°53'0 0.1
2018-Sep-18 04:01N 29°55' W 093°53'0 0.0
2018-Sep-18 03:30N 29°55' W 093°53'0 0.0
2018-Sep-18 03:03N 29°55' W 093°53'0 0.0
2018-Sep-18 03:00N 29°55' W 093°53'0 0.0
2018-Sep-18 02:30N 29°55' W 093°53'0 0.0
2018-Sep-18 02:03N 29°55' W 093°53'0 0.0
2018-Sep-18 02:00N 29°55' W 093°53'0 0.0
2018-Sep-18 01:30N 29°55' W 093°53'0 0.0
2018-Sep-18 01:03N 29°55' W 093°53'0 0.1
2018-Sep-18 01:00N 29°55' W 093°53'0 0.0
2018-Sep-18 00:30N 29°55' W 093°53'0 0.0
2018-Sep-18 00:03N 29°55' W 093°53'0 0.2
2018-Sep-18 00:00N 29°55' W 093°53'0 0.0
2018-Sep-17 23:30N 29°55' W 093°53'0 0.0
2018-Sep-17 23:03N 29°55' W 093°53'0 0.0
2018-Sep-17 23:00N 29°55' W 093°53'0 0.0
2018-Sep-17 22:30N 29°55' W 093°53'0 0.0
2018-Sep-17 22:03N 29°55' W 093°53'0 0.1
2018-Sep-17 22:00N 29°55' W 093°53'0 0.0
2018-Sep-17 21:30N 29°55' W 093°53'0 0.0
2018-Sep-17 21:03N 29°55' W 093°53'0 0.1
2018-Sep-17 21:00N 29°55' W 093°53'0 0.0
2018-Sep-17 20:30N 29°55' W 093°53'0 0.0
2018-Sep-17 20:03N 29°55' W 093°53'0 0.1
2018-Sep-17 20:00N 29°55' W 093°53'0 0.0
2018-Sep-17 19:30N 29°55' W 093°53'0 0.0
2018-Sep-17 19:03N 29°55' W 093°53'0 0.0
2018-Sep-17 19:00N 29°55' W 093°53'0 0.0
2018-Sep-17 18:30N 29°55' W 093°53'0 0.0
2018-Sep-17 18:03N 29°55' W 093°53'0 0.1
2018-Sep-17 18:00N 29°55' W 093°53'0 0.0
2018-Sep-17 17:30N 29°55' W 093°53'0 0.0
2018-Sep-17 17:03N 29°55' W 093°53'0 0.1
2018-Sep-17 16:59N 29°55' W 093°53'0 0.0
2018-Sep-17 16:30N 29°55' W 093°53'0 0.0
2018-Sep-17 16:03N 29°55' W 093°53'0 0.0
2018-Sep-17 16:00N 29°55' W 093°53'0 0.0
2018-Sep-17 15:30N 29°55' W 093°53'0 0.0
2018-Sep-17 15:03N 29°55' W 093°53'0 0.1
2018-Sep-17 15:00N 29°55' W 093°53'0 0.0
2018-Sep-17 14:30N 29°55' W 093°53'0 0.0
2018-Sep-17 14:00N 29°55' W 093°53'0 0.0
2018-Sep-17 13:30N 29°55' W 093°53'0 0.0
2018-Sep-17 13:03N 29°55' W 093°53'0 0.1
2018-Sep-17 13:00N 29°55' W 093°53'0 0.0
2018-Sep-17 12:30N 29°55' W 093°53'1 1.5
2018-Sep-17 12:03N 29°56' W 093°53'0 6.4
2018-Sep-17 12:00N 29°56' W 093°52'3 5.7
2018-Sep-17 11:30N 29°58' W 093°51'3 5.7
2018-Sep-17 11:03N 29°59' W 093°48'0 6.4
2018-Sep-17 11:00N 29°59' W 093°47'3 6.7
2018-Sep-17 10:30N 30°02' W 093°44'2 4.3
2018-Sep-17 10:03N 30°03' W 093°44'0 0.2
2018-Sep-17 10:00N 30°03' W 093°44'0 0.0
2018-Sep-17 09:30N 30°03' W 093°44'0 0.0
2018-Sep-17 09:04N 30°03' W 093°44'0 0.1
2018-Sep-17 09:00N 30°03' W 093°44'0 0.0
2018-Sep-17 08:30N 30°03' W 093°44'0 0.0
2018-Sep-17 08:03N 30°03' W 093°44'0 0.0
2018-Sep-17 08:00N 30°03' W 093°44'0 0.0
2018-Sep-17 07:30N 30°03' W 093°44'0 0.0
2018-Sep-17 07:03N 30°03' W 093°44'0 0.0
2018-Sep-17 07:01N 30°03' W 093°44'0 0.0
2018-Sep-17 06:30N 30°03' W 093°44'0 0.0
2018-Sep-17 06:03N 30°03' W 093°44'0 0.0
2018-Sep-17 06:00N 30°03' W 093°44'0 0.0
2018-Sep-17 05:30N 30°03' W 093°44'0 0.0
2018-Sep-17 05:03N 30°03' W 093°44'0 0.0
2018-Sep-17 05:00N 30°03' W 093°44'0 0.0
2018-Sep-17 04:31N 30°03' W 093°44'0 0.0
2018-Sep-17 04:03N 30°03' W 093°44'0 0.2
2018-Sep-17 04:00N 30°03' W 093°44'0 0.0
2018-Sep-17 03:30N 30°03' W 093°44'0 0.0
2018-Sep-17 03:03N 30°03' W 093°44'0 0.0
2018-Sep-17 03:00N 30°03' W 093°44'0 0.0
2018-Sep-17 02:31N 30°03' W 093°44'0 0.0
2018-Sep-17 02:03N 30°03' W 093°44'0 0.0
2018-Sep-17 02:00N 30°03' W 093°44'0 0.0
2018-Sep-17 01:31N 30°03' W 093°44'0 0.0
2018-Sep-17 01:03N 30°03' W 093°44'0 0.1
2018-Sep-17 01:00N 30°03' W 093°44'0 0.0
2018-Sep-17 00:31N 30°03' W 093°44'0 0.0
2018-Sep-17 00:04N 30°03' W 093°44'0 0.0
2018-Sep-17 00:00N 30°03' W 093°44'0 0.0
2018-Sep-16 23:30N 30°03' W 093°44'0 0.0
2018-Sep-16 23:03N 30°03' W 093°44'0 0.0
2018-Sep-16 23:00N 30°03' W 093°44'0 0.0
2018-Sep-16 22:31N 30°03' W 093°44'0 0.0
2018-Sep-16 22:03N 30°03' W 093°44'0 0.1
2018-Sep-16 22:00N 30°03' W 093°44'0 0.0
2018-Sep-16 21:30N 30°03' W 093°44'0 0.0
2018-Sep-16 21:03N 30°03' W 093°44'0 0.0
2018-Sep-16 21:00N 30°03' W 093°44'0 0.0
2018-Sep-16 20:30N 30°03' W 093°44'0 0.0
2018-Sep-16 20:03N 30°03' W 093°44'0 0.1
2018-Sep-16 20:00N 30°03' W 093°44'0 0.0
2018-Sep-16 19:30N 30°03' W 093°44'0 0.0
2018-Sep-16 19:03N 30°03' W 093°44'0 0.1
2018-Sep-16 19:00N 30°03' W 093°44'0 0.0
2018-Sep-16 18:30N 30°03' W 093°44'0 0.0
2018-Sep-16 18:03N 30°03' W 093°44'0 0.0
2018-Sep-16 18:00N 30°03' W 093°44'0 0.0
2018-Sep-16 17:30N 30°03' W 093°44'0 0.0
2018-Sep-16 17:03N 30°03' W 093°44'0 0.0
2018-Sep-16 17:00N 30°03' W 093°44'0 0.0
2018-Sep-16 16:30N 30°03' W 093°44'0 0.0
2018-Sep-16 16:03N 30°03' W 093°44'0 0.1
2018-Sep-16 16:00N 30°03' W 093°44'0 0.0
2018-Sep-16 15:30N 30°03' W 093°44'0 0.0
2018-Sep-16 15:04N 30°03' W 093°44'0 0.0
2018-Sep-16 15:00N 30°03' W 093°44'0 0.0
2018-Sep-16 14:03N 30°03' W 093°44'0 0.0
2018-Sep-16 13:30N 30°03' W 093°44'0 0.0
2018-Sep-16 13:03N 30°03' W 093°44'0 0.1
2018-Sep-16 13:00N 30°03' W 093°44'0 0.0
2018-Sep-16 12:29N 30°03' W 093°44'0 0.0
2018-Sep-16 12:03N 30°03' W 093°44'0 0.1
2018-Sep-16 12:00N 30°03' W 093°44'0 0.0
2018-Sep-16 11:30N 30°03' W 093°44'0 0.0
2018-Sep-16 11:03N 30°03' W 093°44'0 0.0
2018-Sep-16 11:00N 30°03' W 093°44'0 0.0
2018-Sep-16 10:30N 30°03' W 093°44'0 0.0
2018-Sep-16 10:03N 30°03' W 093°44'0 0.1
2018-Sep-16 10:00N 30°03' W 093°44'0 0.0
2018-Sep-16 09:30N 30°03' W 093°44'0 0.0
2018-Sep-16 09:03N 30°03' W 093°44'0 0.0
2018-Sep-16 09:00N 30°03' W 093°44'0 0.0
2018-Sep-16 08:30N 30°03' W 093°44'0 0.0
2018-Sep-16 08:03N 30°03' W 093°44'0 0.0
2018-Sep-16 08:00N 30°03' W 093°44'0 0.0
2018-Sep-16 07:30N 30°03' W 093°44'0 0.0
2018-Sep-16 07:03N 30°03' W 093°44'0 0.0
2018-Sep-16 06:59N 30°03' W 093°44'0 0.0
2018-Sep-16 06:30N 30°03' W 093°44'0 0.0
2018-Sep-16 06:03N 30°03' W 093°44'0 0.1
2018-Sep-16 06:00N 30°03' W 093°44'0 0.0
2018-Sep-16 05:30N 30°03' W 093°44'0 0.0
2018-Sep-16 05:03N 30°03' W 093°44'0 0.1
2018-Sep-16 05:00N 30°03' W 093°44'0 0.0
2018-Sep-16 04:30N 30°03' W 093°44'0 0.0
2018-Sep-16 04:03N 30°03' W 093°44'0 0.0
2018-Sep-16 04:00N 30°03' W 093°44'0 0.0
2018-Sep-16 03:30N 30°03' W 093°44'0 0.0
2018-Sep-16 03:03N 30°03' W 093°44'0 0.0
2018-Sep-16 03:00N 30°03' W 093°44'0 0.0
2018-Sep-16 02:30N 30°03' W 093°44'0 0.0
2018-Sep-16 02:03N 30°03' W 093°44'0 0.0
2018-Sep-16 02:00N 30°03' W 093°44'0 0.0
2018-Sep-16 01:30N 30°03' W 093°44'0 0.0
2018-Sep-16 01:03N 30°03' W 093°44'0 0.1
2018-Sep-16 01:00N 30°03' W 093°44'0 0.0
2018-Sep-16 00:30N 30°03' W 093°44'0 0.0
2018-Sep-16 00:03N 30°03' W 093°44'0 0.0
2018-Sep-16 00:00N 30°03' W 093°44'0 0.0
2018-Sep-15 23:30N 30°03' W 093°44'0 0.0
2018-Sep-15 23:03N 30°03' W 093°44'0 0.1
2018-Sep-15 23:00N 30°03' W 093°44'0 0.0
2018-Sep-15 22:30N 30°03' W 093°44'0 0.0
2018-Sep-15 22:03N 30°03' W 093°44'0 0.0
2018-Sep-15 22:00N 30°03' W 093°44'0 0.0
2018-Sep-15 21:30N 30°03' W 093°44'0 0.0
2018-Sep-15 21:03N 30°03' W 093°44'0 0.0
2018-Sep-15 21:00N 30°03' W 093°44'0 0.0
2018-Sep-15 20:30N 30°03' W 093°44'0 0.0
2018-Sep-15 20:03N 30°03' W 093°44'0 0.1
2018-Sep-15 20:00N 30°03' W 093°44'0 0.0
2018-Sep-15 19:30N 30°03' W 093°44'0 0.0
2018-Sep-15 19:03N 30°03' W 093°44'0 0.0
2018-Sep-15 19:00N 30°03' W 093°44'0 0.0
2018-Sep-15 18:30N 30°03' W 093°44'0 0.0
2018-Sep-15 18:04N 30°03' W 093°44'0 0.0
2018-Sep-15 18:00N 30°03' W 093°44'0 0.0
2018-Sep-15 17:30N 30°03' W 093°44'0 0.0
2018-Sep-15 17:03N 30°03' W 093°44'0 0.0
2018-Sep-15 17:00N 30°03' W 093°44'0 0.0
2018-Sep-15 16:29N 30°03' W 093°44'1 1.4
2018-Sep-15 16:03N 30°04' W 093°45'0 0.1
2018-Sep-15 16:00N 30°04' W 093°45'0 0.0
2018-Sep-15 15:30N 30°04' W 093°45'1 1.0
2018-Sep-15 15:01N 30°04' W 093°44'0 0.2
2018-Sep-15 14:30N 30°03' W 093°44'0 0.0
2018-Sep-15 14:00N 30°03' W 093°44'0 0.0
2018-Sep-15 13:30N 30°03' W 093°44'0 0.0
2018-Sep-15 13:03N 30°03' W 093°44'0 0.1
2018-Sep-15 13:00N 30°03' W 093°44'0 0.0
2018-Sep-15 12:30N 30°03' W 093°44'0 0.0
2018-Sep-15 12:03N 30°03' W 093°44'0 0.0
2018-Sep-15 12:00N 30°03' W 093°44'0 0.0
2018-Sep-15 11:30N 30°03' W 093°44'0 0.0
2018-Sep-15 11:03N 30°03' W 093°44'0 0.0
2018-Sep-15 11:00N 30°03' W 093°44'0 0.0
2018-Sep-15 10:30N 30°03' W 093°44'0 0.0
2018-Sep-15 10:03N 30°03' W 093°44'0 0.1
2018-Sep-15 10:00N 30°03' W 093°44'0 0.0
2018-Sep-15 09:30N 30°03' W 093°44'0 0.0
2018-Sep-15 09:04N 30°03' W 093°44'0 0.0
2018-Sep-15 09:00N 30°03' W 093°44'0 0.0
2018-Sep-15 08:30N 30°03' W 093°44'0 0.0
2018-Sep-15 08:03N 30°03' W 093°44'0 0.0
2018-Sep-15 08:00N 30°03' W 093°44'0 0.0
2018-Sep-15 07:31N 30°03' W 093°44'0 0.0
2018-Sep-15 07:03N 30°03' W 093°44'0 0.0
2018-Sep-15 07:00N 30°03' W 093°44'0 0.0
2018-Sep-15 06:30N 30°03' W 093°44'0 0.0
2018-Sep-15 06:03N 30°03' W 093°44'0 0.1
2018-Sep-15 05:59N 30°03' W 093°44'0 0.0
2018-Sep-15 05:30N 30°03' W 093°44'0 0.0
2018-Sep-15 05:03N 30°03' W 093°44'0 0.1
2018-Sep-15 05:00N 30°03' W 093°44'0 0.0
2018-Sep-15 04:30N 30°03' W 093°44'0 0.0
2018-Sep-15 04:03N 30°03' W 093°44'0 0.2
2018-Sep-15 04:00N 30°03' W 093°44'0 0.0
2018-Sep-15 03:30N 30°03' W 093°44'0 0.0
2018-Sep-15 03:03N 30°03' W 093°44'0 0.0
2018-Sep-15 03:00N 30°03' W 093°44'0 0.0
2018-Sep-15 02:30N 30°03' W 093°44'0 0.0
2018-Sep-15 02:01N 30°03' W 093°44'0 0.2
2018-Sep-15 02:00N 30°03' W 093°44'0 0.0
2018-Sep-15 01:30N 30°03' W 093°44'0 0.0
2018-Sep-15 01:04N 30°03' W 093°44'0 0.1
2018-Sep-15 01:01N 30°03' W 093°44'0 0.0
2018-Sep-15 00:30N 30°03' W 093°44'0 0.0
2018-Sep-15 00:03N 30°03' W 093°44'0 0.1
2018-Sep-15 00:00N 30°03' W 093°44'1 2.4
2018-Sep-14 23:30N 30°02' W 093°44'3 5.6
2018-Sep-14 23:03N 30°00' W 093°46'0 5.9
2018-Sep-14 23:00N 30°00' W 093°46'3 5.7
2018-Sep-14 22:30N 29°59' W 093°49'2 5.5
2018-Sep-14 22:03N 29°57' W 093°52'0 6.2
2018-Sep-14 22:00N 29°57' W 093°52'2 4.3
2018-Sep-14 21:30N 29°55' W 093°53'0 0.0
2018-Sep-14 21:03N 29°55' W 093°53'0 0.0
2018-Sep-14 21:00N 29°55' W 093°53'0 0.0
2018-Sep-14 20:30N 29°55' W 093°53'0 0.0
2018-Sep-14 20:03N 29°55' W 093°53'0 0.0
2018-Sep-14 20:00N 29°55' W 093°53'0 0.0
2018-Sep-14 19:30N 29°55' W 093°53'0 0.0
2018-Sep-14 19:03N 29°55' W 093°53'0 0.0
2018-Sep-14 19:01N 29°55' W 093°53'0 0.0
2018-Sep-14 18:30N 29°55' W 093°53'0 0.0
2018-Sep-14 18:03N 29°55' W 093°53'0 0.0
2018-Sep-14 18:01N 29°55' W 093°53'0 0.0
2018-Sep-14 17:30N 29°55' W 093°53'0 0.0
2018-Sep-14 17:03N 29°55' W 093°53'0 0.0
2018-Sep-14 17:00N 29°55' W 093°53'0 0.0
2018-Sep-14 16:30N 29°55' W 093°53'0 0.0
2018-Sep-14 16:03N 29°55' W 093°53'0 0.1
2018-Sep-14 16:00N 29°55' W 093°53'0 0.0
2018-Sep-14 15:31N 29°55' W 093°53'0 0.0
2018-Sep-14 15:03N 29°55' W 093°53'0 0.1
2018-Sep-14 15:00N 29°55' W 093°53'0 0.0
2018-Sep-14 14:30N 29°55' W 093°53'0 0.0
2018-Sep-14 14:00N 29°55' W 093°53'0 0.0
2018-Sep-14 13:31N 29°55' W 093°53'0 0.0
2018-Sep-14 13:03N 29°55' W 093°53'0 0.0
2018-Sep-14 13:00N 29°55' W 093°53'0 0.8
2018-Sep-14 12:30N 29°55' W 093°53'3 7.1
2018-Sep-14 12:04N 29°53' W 093°56'0 6.8
2018-Sep-14 12:00N 29°52' W 093°56'3 6.2
2018-Sep-14 11:30N 29°50' W 093°58'2 4.8
2018-Sep-14 11:03N 29°49' W 093°60'0 6.2
2018-Sep-14 11:00N 29°48' W 094°00'3 6.5
2018-Sep-14 10:30N 29°46' W 094°03'2 5.5
2018-Sep-14 10:04N 29°45' W 094°05'0 6.5
2018-Sep-14 10:00N 29°44' W 094°05'3 6.5
2018-Sep-14 09:30N 29°42' W 094°08'3 6.1
2018-Sep-14 09:04N 29°41' W 094°11'0 6.1
2018-Sep-14 09:00N 29°41' W 094°11'3 6.1
2018-Sep-14 08:31N 29°40' W 094°14'3 6.0
2018-Sep-14 08:03N 29°38' W 094°17'0 5.9
2018-Sep-14 08:00N 29°38' W 094°18'3 5.9
2018-Sep-14 07:31N 29°37' W 094°21'3 5.8
2018-Sep-14 07:03N 29°36' W 094°23'1 5.7
2018-Sep-14 06:56N 29°36' W 094°24'2 5.0
2018-Sep-14 06:30N 29°34' W 094°25'3 5.7
2018-Sep-14 05:58N 29°33' W 094°28'20 4.4
2018-Sep-14 01:32N 29°22' W 094°47'0 6.4
2018-Sep-14 01:29N 29°22' W 094°48'3 5.1
2018-Sep-14 00:54N 29°25' W 094°49'3 6.5
2018-Sep-14 00:25N 29°27' W 094°51'2 6.8
2018-Sep-14 00:03N 29°30' W 094°52'0 6.7
2018-Sep-14 00:00N 29°30' W 094°52'4 7.1
2018-Sep-13 23:30N 29°33' W 094°54'3 7.1
2018-Sep-13 23:04N 29°35' W 094°57'0 7.1
2018-Sep-13 23:01N 29°36' W 094°57'3 6.0
2018-Sep-13 22:31N 29°37' W 095°00'1 2.1
2018-Sep-13 22:04N 29°36' W 095°01'0 0.0
2018-Sep-13 22:00N 29°36' W 095°01'0 0.1
2018-Sep-13 21:30N 29°36' W 095°01'0 0.0
2018-Sep-13 21:03N 29°36' W 095°01'0 0.1
2018-Sep-13 21:00N 29°36' W 095°01'0 0.0
2018-Sep-13 20:30N 29°36' W 095°01'0 0.0
2018-Sep-13 19:57N 29°36' W 095°01'0 0.0
2018-Sep-13 19:31N 29°36' W 095°01'0 0.0
2018-Sep-13 19:03N 29°36' W 095°01'0 0.0
2018-Sep-13 19:00N 29°36' W 095°01'0 0.0
2018-Sep-13 18:29N 29°36' W 095°01'0 0.0
2018-Sep-13 18:04N 29°36' W 095°01'0 0.0
2018-Sep-13 18:00N 29°36' W 095°01'0 0.0
2018-Sep-13 17:30N 29°36' W 095°01'0 0.0
2018-Sep-13 17:03N 29°36' W 095°01'0 0.0
2018-Sep-13 17:00N 29°36' W 095°01'0 0.0
2018-Sep-13 16:30N 29°36' W 095°01'0 0.0
2018-Sep-13 16:01N 29°36' W 095°01'0 0.0
2018-Sep-13 16:00N 29°36' W 095°01'0 0.0
2018-Sep-13 15:29N 29°36' W 095°01'0 0.0
2018-Sep-13 15:03N 29°36' W 095°01'0 0.0
2018-Sep-13 15:00N 29°36' W 095°01'0 0.0
2018-Sep-13 14:03N 29°36' W 095°01'0 0.1
2018-Sep-13 13:59N 29°36' W 095°01'0 0.0
2018-Sep-13 13:27N 29°36' W 095°01'0 0.0
2018-Sep-13 13:04N 29°36' W 095°01'0 0.0
2018-Sep-13 12:49N 29°36' W 095°01'0 0.0
2018-Sep-13 12:27N 29°36' W 095°01'0 0.0
2018-Sep-13 12:03N 29°36' W 095°01'0 0.0
2018-Sep-13 12:00N 29°36' W 095°01'0 0.0
2018-Sep-13 11:30N 29°36' W 095°01'0 0.0
2018-Sep-13 11:04N 29°36' W 095°01'0 0.1
2018-Sep-13 11:01N 29°36' W 095°01'0 0.0
2018-Sep-13 10:30N 29°36' W 095°01'0 0.0
2018-Sep-13 10:03N 29°36' W 095°01'0 0.1
2018-Sep-13 09:58N 29°36' W 095°01'0 0.0
2018-Sep-13 09:26N 29°36' W 095°01'0 0.0
2018-Sep-13 09:03N 29°36' W 095°01'0 0.0
2018-Sep-13 09:00N 29°36' W 095°01'0 0.0
2018-Sep-13 08:30N 29°36' W 095°01'0 0.0
2018-Sep-13 08:03N 29°36' W 095°01'0 0.0
2018-Sep-13 08:00N 29°36' W 095°01'0 0.0
2018-Sep-13 07:30N 29°36' W 095°01'0 0.0
2018-Sep-13 07:03N 29°36' W 095°01'0 0.0
2018-Sep-13 07:00N 29°36' W 095°01'0 0.0
2018-Sep-13 06:30N 29°36' W 095°01'0 0.0
2018-Sep-13 06:03N 29°36' W 095°01'0 0.1
2018-Sep-13 06:00N 29°36' W 095°01'0 0.0
2018-Sep-13 05:30N 29°36' W 095°01'0 0.0
2018-Sep-13 05:03N 29°36' W 095°01'0 0.0
2018-Sep-13 05:00N 29°36' W 095°01'0 0.0
2018-Sep-13 04:30N 29°36' W 095°01'0 0.0
2018-Sep-13 04:03N 29°36' W 095°01'0 0.0
2018-Sep-13 04:00N 29°36' W 095°01'0 0.0
2018-Sep-13 03:30N 29°36' W 095°01'0 0.0
2018-Sep-13 03:03N 29°36' W 095°01'0 0.2
2018-Sep-13 03:00N 29°36' W 095°01'0 0.0
2018-Sep-13 02:30N 29°36' W 095°01'0 0.0
2018-Sep-13 02:03N 29°36' W 095°01'0 0.0
2018-Sep-13 02:00N 29°36' W 095°01'0 0.0
2018-Sep-13 01:30N 29°36' W 095°01'0 0.0
2018-Sep-13 01:03N 29°36' W 095°01'0 0.1
2018-Sep-13 01:00N 29°36' W 095°01'0 0.2
2018-Sep-13 00:30N 29°37' W 095°01'0 0.7
2018-Sep-13 00:03N 29°37' W 095°01'0 5.3
2018-Sep-13 00:00N 29°37' W 095°01'3 5.9
2018-Sep-12 23:30N 29°37' W 094°57'3 6.6
2018-Sep-12 23:01N 29°34' W 094°55'0 6.5
2018-Sep-12 23:00N 29°34' W 094°55'3 6.8
2018-Sep-12 22:30N 29°31' W 094°53'3 6.8
2018-Sep-12 22:03N 29°28' W 094°51'0 6.7
2018-Sep-12 22:00N 29°28' W 094°51'13 3.7
2018-Sep-12 18:28N 29°29' W 094°36'3 6.0
2018-Sep-12 18:03N 29°30' W 094°33'0 5.9
2018-Sep-12 18:00N 29°30' W 094°33'3 6.0
2018-Sep-12 17:30N 29°31' W 094°30'3 5.9
2018-Sep-12 16:55N 29°34' W 094°27'2 5.1
2018-Sep-12 16:26N 29°35' W 094°25'1 3.2
2018-Sep-12 16:03N 29°36' W 094°24'0 4.1
2018-Sep-12 15:58N 29°36' W 094°23'3 6.0
2018-Sep-12 15:30N 29°37' W 094°20'3 6.4
2018-Sep-12 15:02N 29°38' W 094°17'0 6.3
2018-Sep-12 15:00N 29°38' W 094°17'3 6.3
2018-Sep-12 14:30N 29°40' W 094°14'3 6.3
2018-Sep-12 14:00N 29°41' W 094°11'3 6.1
2018-Sep-12 13:30N 29°43' W 094°08'3 6.4
2018-Sep-12 13:03N 29°44' W 094°05'0 6.4
2018-Sep-12 13:00N 29°45' W 094°05'3 6.5
2018-Sep-12 12:30N 29°47' W 094°02'3 6.4
2018-Sep-12 12:03N 29°49' W 093°60'0 5.9
2018-Sep-12 12:00N 29°49' W 093°59'1 2.3
2018-Sep-12 11:30N 29°49' W 093°58'0 0.0
2018-Sep-12 11:03N 29°49' W 093°58'0 0.1
2018-Sep-12 11:00N 29°49' W 093°58'0 0.0
2018-Sep-12 10:30N 29°49' W 093°58'0 0.0
2018-Sep-12 10:03N 29°49' W 093°58'0 0.0
2018-Sep-12 10:00N 29°49' W 093°58'0 0.0
2018-Sep-12 09:30N 29°49' W 093°58'0 0.0
2018-Sep-12 09:03N 29°49' W 093°58'0 0.0
2018-Sep-12 09:00N 29°49' W 093°58'0 0.0
2018-Sep-12 08:30N 29°49' W 093°58'0 0.0
2018-Sep-12 08:03N 29°49' W 093°58'0 0.1
2018-Sep-12 08:00N 29°49' W 093°58'0 0.0
2018-Sep-12 07:30N 29°49' W 093°58'0 0.0
2018-Sep-12 07:03N 29°49' W 093°58'0 0.0
2018-Sep-12 07:00N 29°49' W 093°58'0 0.0
2018-Sep-12 06:30N 29°49' W 093°58'0 0.0
2018-Sep-12 06:03N 29°49' W 093°58'0 1.0
2018-Sep-12 06:00N 29°49' W 093°58'2 3.8
2018-Sep-12 05:30N 29°51' W 093°57'3 7.0
2018-Sep-12 05:03N 29°54' W 093°55'0 7.0
2018-Sep-12 05:00N 29°54' W 093°54'3 6.9
2018-Sep-12 04:30N 29°56' W 093°52'2 5.1
2018-Sep-12 04:03N 29°58' W 093°51'0 2.4
2018-Sep-12 04:00N 29°58' W 093°50'3 6.0
2018-Sep-12 03:29N 29°60' W 093°47'3 6.1
2018-Sep-12 03:03N 30°01' W 093°45'0 5.8
2018-Sep-12 03:00N 30°02' W 093°44'2 3.6
2018-Sep-12 02:30N 30°03' W 093°44'0 0.3
2018-Sep-12 02:03N 30°03' W 093°44'0 0.0
2018-Sep-12 01:59N 30°03' W 093°44'0 0.1
2018-Sep-12 01:30N 30°03' W 093°44'0 0.0
2018-Sep-12 01:03N 30°03' W 093°44'0 0.1
2018-Sep-12 01:00N 30°03' W 093°44'0 0.0
2018-Sep-12 00:30N 30°03' W 093°44'0 0.0
2018-Sep-12 00:03N 30°03' W 093°44'0 0.0
2018-Sep-12 00:00N 30°03' W 093°44'0 0.0
2018-Sep-11 23:30N 30°03' W 093°44'0 0.0
2018-Sep-11 23:02N 30°03' W 093°44'0 0.1
2018-Sep-11 23:00N 30°03' W 093°44'0 0.0
2018-Sep-11 22:30N 30°03' W 093°44'0 0.0
2018-Sep-11 22:03N 30°03' W 093°44'0 0.1
2018-Sep-11 22:00N 30°03' W 093°44'0 0.0
2018-Sep-11 21:30N 30°03' W 093°44'0 0.0
2018-Sep-11 21:03N 30°03' W 093°44'0 0.1
2018-Sep-11 21:00N 30°03' W 093°44'0 0.0
2018-Sep-11 20:30N 30°03' W 093°44'0 0.0
2018-Sep-11 20:03N 30°03' W 093°44'0 0.1
2018-Sep-11 20:00N 30°03' W 093°44'0 0.0
2018-Sep-11 19:30N 30°03' W 093°44'0 0.0
2018-Sep-11 19:03N 30°03' W 093°44'0 0.1
2018-Sep-11 19:00N 30°03' W 093°44'0 0.0
2018-Sep-11 18:30N 30°03' W 093°44'0 0.0
2018-Sep-11 18:03N 30°03' W 093°44'0 0.1
2018-Sep-11 18:00N 30°03' W 093°44'0 0.0
2018-Sep-11 17:30N 30°03' W 093°44'0 0.0
2018-Sep-11 17:03N 30°03' W 093°44'0 0.0
2018-Sep-11 17:00N 30°03' W 093°44'0 0.0
2018-Sep-11 16:30N 30°03' W 093°44'0 0.0
2018-Sep-11 16:03N 30°03' W 093°44'0 0.1
2018-Sep-11 16:00N 30°03' W 093°44'0 0.0
2018-Sep-11 15:30N 30°03' W 093°44'0 0.0
2018-Sep-11 15:03N 30°03' W 093°44'0 0.2
2018-Sep-11 15:00N 30°03' W 093°44'0 0.0
2018-Sep-11 14:30N 30°03' W 093°44'0 0.0
2018-Sep-11 13:16N 30°03' W 093°44'0 0.0
2018-Sep-11 13:03N 30°03' W 093°44'0 0.1
2018-Sep-11 13:00N 30°03' W 093°44'0 0.0
2018-Sep-11 12:30N 30°03' W 093°44'0 0.0
2018-Sep-11 12:03N 30°03' W 093°44'0 0.0
2018-Sep-11 12:00N 30°03' W 093°44'0 0.0
2018-Sep-11 11:30N 30°03' W 093°44'0 0.0
2018-Sep-11 11:03N 30°03' W 093°44'0 0.0
2018-Sep-11 11:00N 30°03' W 093°44'0 0.0
2018-Sep-11 10:30N 30°03' W 093°44'0 0.0
2018-Sep-11 10:04N 30°03' W 093°44'0 0.0
2018-Sep-11 10:00N 30°03' W 093°44'0 0.0
2018-Sep-11 09:30N 30°03' W 093°44'0 0.0
2018-Sep-11 09:03N 30°03' W 093°44'0 0.0
2018-Sep-11 09:00N 30°03' W 093°44'0 0.0
2018-Sep-11 08:30N 30°03' W 093°44'0 0.0
2018-Sep-11 08:03N 30°03' W 093°44'0 0.0
2018-Sep-11 08:00N 30°03' W 093°44'0 0.0
2018-Sep-11 07:30N 30°03' W 093°44'0 0.0
2018-Sep-11 07:03N 30°03' W 093°44'0 0.1
2018-Sep-11 07:00N 30°03' W 093°44'0 0.0
2018-Sep-11 06:30N 30°03' W 093°44'0 0.0
2018-Sep-11 06:03N 30°03' W 093°44'0 0.0
2018-Sep-11 05:20N 30°03' W 093°44'0 0.0
2018-Sep-11 05:03N 30°03' W 093°44'0 0.0
2018-Sep-11 05:00N 30°03' W 093°44'0 0.0
2018-Sep-11 04:30N 30°03' W 093°44'0 0.0
2018-Sep-11 04:04N 30°03' W 093°44'0 0.0
2018-Sep-11 04:00N 30°03' W 093°44'0 0.0
2018-Sep-11 03:31N 30°03' W 093°44'0 0.0
2018-Sep-11 03:04N 30°03' W 093°44'0 0.0
2018-Sep-11 03:01N 30°03' W 093°44'0 0.0
2018-Sep-11 02:30N 30°03' W 093°44'0 0.0
2018-Sep-11 02:03N 30°03' W 093°44'0 0.0
2018-Sep-11 02:00N 30°03' W 093°44'0 0.0
2018-Sep-11 01:30N 30°03' W 093°44'0 0.0
2018-Sep-11 01:03N 30°03' W 093°44'0 0.1
2018-Sep-11 01:00N 30°03' W 093°44'0 0.1
2018-Sep-11 00:30N 30°03' W 093°44'1 1.5
2018-Sep-11 00:02N 30°04' W 093°45'0 0.0
2018-Sep-11 00:00N 30°04' W 093°45'0 0.0
2018-Sep-10 23:29N 30°04' W 093°45'0 0.0
2018-Sep-10 23:03N 30°04' W 093°45'0 0.0
2018-Sep-10 23:00N 30°04' W 093°45'0 0.0
2018-Sep-10 22:30N 30°04' W 093°45'0 0.0
2018-Sep-10 22:03N 30°04' W 093°45'0 0.0
2018-Sep-10 22:00N 30°04' W 093°45'1 1.5
2018-Sep-10 21:30N 30°03' W 093°44'0 0.0
2018-Sep-10 20:57N 30°03' W 093°44'0 0.0
2018-Sep-10 20:30N 30°03' W 093°44'0 0.0
2018-Sep-10 20:03N 30°03' W 093°44'0 0.0
2018-Sep-10 20:00N 30°03' W 093°44'0 0.0
2018-Sep-10 19:30N 30°03' W 093°44'0 0.0
2018-Sep-10 19:04N 30°03' W 093°44'0 0.0
2018-Sep-10 19:01N 30°03' W 093°44'0 0.0
2018-Sep-10 18:30N 30°03' W 093°44'0 0.0
2018-Sep-10 18:04N 30°03' W 093°44'0 0.0
2018-Sep-10 18:00N 30°03' W 093°44'0 0.0
2018-Sep-10 17:30N 30°03' W 093°44'0 0.0
2018-Sep-10 17:03N 30°03' W 093°44'0 0.0
2018-Sep-10 17:00N 30°03' W 093°44'0 0.0
2018-Sep-10 16:30N 30°03' W 093°44'0 0.0
2018-Sep-10 16:04N 30°03' W 093°44'0 0.0
2018-Sep-10 16:00N 30°03' W 093°44'0 0.0
2018-Sep-10 15:30N 30°03' W 093°44'0 0.0
2018-Sep-10 15:03N 30°03' W 093°44'0 0.0
2018-Sep-10 15:00N 30°03' W 093°44'0 0.0
2018-Sep-10 14:30N 30°03' W 093°44'0 0.0
2018-Sep-10 14:00N 30°03' W 093°44'0 0.0
2018-Sep-10 13:30N 30°03' W 093°44'0 0.0
2018-Sep-10 13:03N 30°03' W 093°44'0 0.0
2018-Sep-10 13:00N 30°03' W 093°44'0 0.0
2018-Sep-10 12:30N 30°03' W 093°44'0 0.0
2018-Sep-10 12:03N 30°03' W 093°44'0 0.0
2018-Sep-10 12:00N 30°03' W 093°44'0 0.0
2018-Sep-10 11:31N 30°03' W 093°44'0 0.0
2018-Sep-10 11:04N 30°03' W 093°44'0 0.0
2018-Sep-10 11:00N 30°03' W 093°44'0 0.0
2018-Sep-10 10:30N 30°03' W 093°44'0 0.0
2018-Sep-10 10:03N 30°03' W 093°44'0 0.0
2018-Sep-10 10:00N 30°03' W 093°44'0 0.0
2018-Sep-10 09:30N 30°03' W 093°44'0 0.0
2018-Sep-10 09:03N 30°03' W 093°44'0 0.0
2018-Sep-10 09:01N 30°03' W 093°44'0 0.0
2018-Sep-10 08:29N 30°03' W 093°44'0 0.0
2018-Sep-10 08:03N 30°03' W 093°44'0 0.0
2018-Sep-10 08:01N 30°03' W 093°44'0 0.0
2018-Sep-10 07:30N 30°03' W 093°44'0 0.0
2018-Sep-10 07:03N 30°03' W 093°44'0 0.0
2018-Sep-10 07:00N 30°03' W 093°44'0 0.0
2018-Sep-10 06:30N 30°03' W 093°44'0 0.0
2018-Sep-10 06:03N 30°03' W 093°44'0 0.0
2018-Sep-10 06:00N 30°03' W 093°44'0 0.0
2018-Sep-10 05:30N 30°03' W 093°44'0 0.0
2018-Sep-10 05:03N 30°03' W 093°44'0 0.0
2018-Sep-10 05:01N 30°03' W 093°44'0 0.0
2018-Sep-10 04:30N 30°03' W 093°44'0 0.0
2018-Sep-10 04:03N 30°03' W 093°44'0 0.0
2018-Sep-10 04:00N 30°03' W 093°44'0 0.0
2018-Sep-10 03:30N 30°03' W 093°44'0 0.0
2018-Sep-10 03:03N 30°03' W 093°44'0 0.0
2018-Sep-10 03:00N 30°03' W 093°44'0 0.0
2018-Sep-10 02:30N 30°03' W 093°44'0 0.0
2018-Sep-10 02:03N 30°03' W 093°44'0 0.0
2018-Sep-10 02:00N 30°03' W 093°44'0 0.0
2018-Sep-10 01:31N 30°03' W 093°44'0 0.0
2018-Sep-10 01:03N 30°03' W 093°44'0 0.0
2018-Sep-10 00:59N 30°03' W 093°44'0 0.0
2018-Sep-10 00:30N 30°03' W 093°44'0 0.0
2018-Sep-10 00:03N 30°03' W 093°44'0 0.1
2018-Sep-10 00:00N 30°03' W 093°44'1 1.5
2018-Sep-09 23:31N 30°04' W 093°45'0 0.0
2018-Sep-09 23:03N 30°04' W 093°45'0 0.0
2018-Sep-09 23:00N 30°04' W 093°45'0 0.0
2018-Sep-09 22:30N 30°04' W 093°45'0 0.0
2018-Sep-09 22:03N 30°04' W 093°45'0 0.0
2018-Sep-09 21:58N 30°04' W 093°45'1 1.5
2018-Sep-09 21:30N 30°03' W 093°44'0 0.1
2018-Sep-09 21:03N 30°03' W 093°44'0 0.0
2018-Sep-09 21:00N 30°03' W 093°44'0 0.0
2018-Sep-09 20:31N 30°03' W 093°44'0 0.0
2018-Sep-09 20:04N 30°03' W 093°44'0 0.1
2018-Sep-09 20:00N 30°03' W 093°44'0 0.0
2018-Sep-09 19:30N 30°03' W 093°44'0 0.0
2018-Sep-09 19:03N 30°03' W 093°44'0 0.0
2018-Sep-09 19:00N 30°03' W 093°44'0 0.0
2018-Sep-09 18:31N 30°03' W 093°44'0 0.0
2018-Sep-09 18:03N 30°03' W 093°44'0 0.0
2018-Sep-09 18:00N 30°03' W 093°44'0 0.0
2018-Sep-09 17:30N 30°03' W 093°44'0 0.0
2018-Sep-09 17:03N 30°03' W 093°44'0 0.0
2018-Sep-09 17:00N 30°03' W 093°44'0 0.0
2018-Sep-09 16:30N 30°03' W 093°44'0 0.0
2018-Sep-09 16:04N 30°03' W 093°44'0 0.1
2018-Sep-09 16:01N 30°03' W 093°44'0 0.0
2018-Sep-09 15:30N 30°03' W 093°44'0 0.0
2018-Sep-09 15:03N 30°03' W 093°44'0 0.0
2018-Sep-09 15:00N 30°03' W 093°44'0 0.0
2018-Sep-09 14:03N 30°03' W 093°44'0 0.0
2018-Sep-09 14:00N 30°03' W 093°44'0 0.0
2018-Sep-09 13:29N 30°03' W 093°44'0 0.0
2018-Sep-09 13:03N 30°03' W 093°44'0 0.1
2018-Sep-09 13:00N 30°03' W 093°44'0 0.0
2018-Sep-09 12:30N 30°03' W 093°44'0 0.0
2018-Sep-09 12:03N 30°03' W 093°44'0 0.0
2018-Sep-09 12:00N 30°03' W 093°44'0 0.0
2018-Sep-09 11:30N 30°03' W 093°44'0 0.0
2018-Sep-09 11:03N 30°03' W 093°44'0 0.0
2018-Sep-09 11:00N 30°03' W 093°44'0 0.0
2018-Sep-09 10:31N 30°03' W 093°44'0 0.0
2018-Sep-09 10:03N 30°03' W 093°44'0 0.1
2018-Sep-09 10:00N 30°03' W 093°44'0 0.0
2018-Sep-09 09:30N 30°03' W 093°44'0 0.0
2018-Sep-09 09:04N 30°03' W 093°44'0 0.0
2018-Sep-09 09:00N 30°03' W 093°44'0 0.0
2018-Sep-09 08:31N 30°03' W 093°44'0 0.0
2018-Sep-09 08:03N 30°03' W 093°44'0 0.1
2018-Sep-09 08:01N 30°03' W 093°44'0 0.0
2018-Sep-09 07:30N 30°03' W 093°44'  
Track history (hours):
 
Tides and Currents Weather Stations Pressure Air Temp Water Temp Dewpoint Dewpoint Depression Visibility Wind Speed Wind Dir Waves Ship Positions

Capt Al Devall

Owner: J & J DEVALL MARITIME MARINE OPERATORS, Sulphur, LA. More information available from US FCC via Universal Licensing System and Coast Guard Vessel Documentation Center.

Last reported at 2018-Sep-19 07:30 UTC. Time now 2018-Sep-19 07:40 UTC.
Position N 30°03' W 093°44'.

; draft 3 m.

Type: Towing. MMSI: 366972270.

Date/timePositionNaut miles runAvg speedWind from/ knotsBaromVisibWave heightAir tempDewpointWater temp
2018-Sep-19 07:30N 30°03' W 093°44'0 0.0
2018-Sep-19 07:00N 30°03' W 093°44'0 0.0
2018-Sep-19 06:29N 30°03' W 093°44'0 0.0
2018-Sep-19 06:04N 30°03' W 093°44'0 0.0
2018-Sep-19 06:00N 30°03' W 093°44'0 0.0
2018-Sep-19 05:31N 30°03' W 093°44'0 0.0
2018-Sep-19 05:03N 30°03' W 093°44'0 0.0
2018-Sep-19 05:00N 30°03' W 093°44'0 0.0
2018-Sep-19 04:30N 30°03' W 093°44'0 0.0
2018-Sep-19 04:03N 30°03' W 093°44'0 0.0
2018-Sep-19 04:00N 30°03' W 093°44'0 0.0
2018-Sep-19 03:30N 30°03' W 093°44'0 0.0
2018-Sep-19 03:03N 30°03' W 093°44'0 0.0
2018-Sep-19 02:58N 30°03' W 093°44'0 0.0
2018-Sep-19 02:30N 30°03' W 093°44'0 0.0
2018-Sep-19 02:03N 30°03' W 093°44'0 0.0
2018-Sep-19 01:59N 30°03' W 093°44'0 0.0
2018-Sep-19 01:30N 30°03' W 093°44'0 0.0
2018-Sep-19 01:03N 30°03' W 093°44'0 0.0
2018-Sep-19 01:00N 30°03' W 093°44'0 0.0
2018-Sep-19 00:30N 30°03' W 093°44'0 0.0
2018-Sep-19 00:03N 30°03' W 093°44'0 0.0
2018-Sep-19 00:00N 30°03' W 093°44'0 0.0
2018-Sep-18 23:30N 30°03' W 093°44'0 0.0
2018-Sep-18 23:03N 30°03' W 093°44'0 0.0
2018-Sep-18 23:01N 30°03' W 093°44'0 0.0
2018-Sep-18 22:30N 30°03' W 093°44'0 0.0
2018-Sep-18 22:03N 30°03' W 093°44'0 0.0
2018-Sep-18 22:00N 30°03' W 093°44'0 0.0
2018-Sep-18 21:30N 30°03' W 093°44'0 0.0
2018-Sep-18 21:03N 30°03' W 093°44'0 0.0
2018-Sep-18 21:00N 30°03' W 093°44'0 0.0
2018-Sep-18 20:29N 30°03' W 093°44'0 0.0
2018-Sep-18 20:03N 30°03' W 093°44'0 2.0
2018-Sep-18 20:00N 30°04' W 093°44'1 1.2
2018-Sep-18 19:30N 30°04' W 093°45'0 0.0
2018-Sep-18 19:03N 30°04' W 093°45'0 1.7
2018-Sep-18 18:59N 30°04' W 093°45'1 2.8
2018-Sep-18 18:30N 30°03' W 093°44'3 6.2
2018-Sep-18 18:03N 30°01' W 093°46'0 6.6
2018-Sep-18 18:00N 30°00' W 093°46'3 6.7
2018-Sep-18 17:31N 29°59' W 093°49'2 4.6
2018-Sep-18 17:03N 29°58' W 093°51'0 2.8
2018-Sep-18 17:00N 29°57' W 093°51'2 5.0
2018-Sep-18 16:30N 29°55' W 093°53'0 0.0
2018-Sep-18 16:03N 29°55' W 093°53'0 0.0
2018-Sep-18 16:00N 29°55' W 093°53'0 0.0
2018-Sep-18 15:30N 29°55' W 093°53'0 0.0
2018-Sep-18 15:04N 29°55' W 093°53'0 0.1
2018-Sep-18 15:01N 29°55' W 093°53'0 0.0
2018-Sep-18 14:31N 29°55' W 093°53'0 0.0
2018-Sep-18 14:00N 29°55' W 093°53'0 0.0
2018-Sep-18 13:30N 29°55' W 093°53'0 0.0
2018-Sep-18 13:02N 29°55' W 093°53'0 0.0
2018-Sep-18 13:00N 29°55' W 093°53'0 0.0
2018-Sep-18 12:31N 29°55' W 093°53'0 0.0
2018-Sep-18 12:04N 29°55' W 093°53'0 0.1
2018-Sep-18 12:00N 29°55' W 093°53'0 0.0
2018-Sep-18 11:31N 29°55' W 093°53'0 0.0
2018-Sep-18 11:03N 29°55' W 093°53'0 0.0
2018-Sep-18 11:01N 29°55' W 093°53'0 0.0
2018-Sep-18 10:31N 29°55' W 093°53'0 0.0
2018-Sep-18 10:03N 29°55' W 093°53'0 0.0
2018-Sep-18 10:00N 29°55' W 093°53'0 0.0
2018-Sep-18 09:30N 29°55' W 093°53'0 0.0
2018-Sep-18 09:03N 29°55' W 093°53'0 0.1
2018-Sep-18 09:00N 29°55' W 093°53'0 0.0
2018-Sep-18 08:31N 29°55' W 093°53'0 0.0
2018-Sep-18 08:04N 29°55' W 093°53'0 0.1
2018-Sep-18 08:00N 29°55' W 093°53'0 0.0
2018-Sep-18 07:30N 29°55' W 093°53'0 0.0
2018-Sep-18 07:04N 29°55' W 093°53'0 0.0
2018-Sep-18 07:01N 29°55' W 093°53'0 0.0
2018-Sep-18 06:30N 29°55' W 093°53'0 0.0
2018-Sep-18 06:03N 29°55' W 093°53'0 0.0
2018-Sep-18 06:01N 29°55' W 093°53'0 0.0
2018-Sep-18 05:30N 29°55' W 093°53'0 0.0
2018-Sep-18 05:03N 29°55' W 093°53'0 0.1
2018-Sep-18 05:00N 29°55' W 093°53'0 0.0
2018-Sep-18 04:31N 29°55' W 093°53'0 0.0
2018-Sep-18 04:03N 29°55' W 093°53'0 0.1
2018-Sep-18 04:01N 29°55' W 093°53'0 0.0
2018-Sep-18 03:30N 29°55' W 093°53'0 0.0
2018-Sep-18 03:03N 29°55' W 093°53'0 0.0
2018-Sep-18 03:00N 29°55' W 093°53'0 0.0
2018-Sep-18 02:30N 29°55' W 093°53'0 0.0
2018-Sep-18 02:03N 29°55' W 093°53'0 0.0
2018-Sep-18 02:00N 29°55' W 093°53'0 0.0
2018-Sep-18 01:30N 29°55' W 093°53'0 0.0
2018-Sep-18 01:03N 29°55' W 093°53'0 0.1
2018-Sep-18 01:00N 29°55' W 093°53'0 0.0
2018-Sep-18 00:30N 29°55' W 093°53'0 0.0
2018-Sep-18 00:03N 29°55' W 093°53'0 0.2
2018-Sep-18 00:00N 29°55' W 093°53'0 0.0
2018-Sep-17 23:30N 29°55' W 093°53'0 0.0
2018-Sep-17 23:03N 29°55' W 093°53'0 0.0
2018-Sep-17 23:00N 29°55' W 093°53'0 0.0
2018-Sep-17 22:30N 29°55' W 093°53'0 0.0
2018-Sep-17 22:03N 29°55' W 093°53'0 0.1
2018-Sep-17 22:00N 29°55' W 093°53'0 0.0
2018-Sep-17 21:30N 29°55' W 093°53'0 0.0
2018-Sep-17 21:03N 29°55' W 093°53'0 0.1
2018-Sep-17 21:00N 29°55' W 093°53'0 0.0
2018-Sep-17 20:30N 29°55' W 093°53'0 0.0
2018-Sep-17 20:03N 29°55' W 093°53'0 0.1
2018-Sep-17 20:00N 29°55' W 093°53'0 0.0
2018-Sep-17 19:30N 29°55' W 093°53'0 0.0
2018-Sep-17 19:03N 29°55' W 093°53'0 0.0
2018-Sep-17 19:00N 29°55' W 093°53'0 0.0
2018-Sep-17 18:30N 29°55' W 093°53'0 0.0
2018-Sep-17 18:03N 29°55' W 093°53'0 0.1
2018-Sep-17 18:00N 29°55' W 093°53'0 0.0
2018-Sep-17 17:30N 29°55' W 093°53'0 0.0
2018-Sep-17 17:03N 29°55' W 093°53'0 0.1
2018-Sep-17 16:59N 29°55' W 093°53'0 0.0
2018-Sep-17 16:30N 29°55' W 093°53'0 0.0
2018-Sep-17 16:03N 29°55' W 093°53'0 0.0
2018-Sep-17 16:00N 29°55' W 093°53'0 0.0
2018-Sep-17 15:30N 29°55' W 093°53'0 0.0
2018-Sep-17 15:03N 29°55' W 093°53'0 0.1
2018-Sep-17 15:00N 29°55' W 093°53'0 0.0
2018-Sep-17 14:30N 29°55' W 093°53'0 0.0
2018-Sep-17 14:00N 29°55' W 093°53'0 0.0
2018-Sep-17 13:30N 29°55' W 093°53'0 0.0
2018-Sep-17 13:03N 29°55' W 093°53'0 0.1
2018-Sep-17 13:00N 29°55' W 093°53'0 0.0
2018-Sep-17 12:30N 29°55' W 093°53'1 1.5
2018-Sep-17 12:03N 29°56' W 093°53'0 6.4
2018-Sep-17 12:00N 29°56' W 093°52'3 5.7
2018-Sep-17 11:30N 29°58' W 093°51'3 5.7
2018-Sep-17 11:03N 29°59' W 093°48'0 6.4
2018-Sep-17 11:00N 29°59' W 093°47'3 6.7
2018-Sep-17 10:30N 30°02' W 093°44'2 4.3
2018-Sep-17 10:03N 30°03' W 093°44'0 0.2
2018-Sep-17 10:00N 30°03' W 093°44'0 0.0
2018-Sep-17 09:30N 30°03' W 093°44'0 0.0
2018-Sep-17 09:04N 30°03' W 093°44'0 0.1
2018-Sep-17 09:00N 30°03' W 093°44'0 0.0
2018-Sep-17 08:30N 30°03' W 093°44'0 0.0
2018-Sep-17 08:03N 30°03' W 093°44'0 0.0
2018-Sep-17 08:00N 30°03' W 093°44'0 0.0
2018-Sep-17 07:30N 30°03' W 093°44'0 0.0
2018-Sep-17 07:03N 30°03' W 093°44'0 0.0
2018-Sep-17 07:01N 30°03' W 093°44'0 0.0
2018-Sep-17 06:30N 30°03' W 093°44'0 0.0
2018-Sep-17 06:03N 30°03' W 093°44'0 0.0
2018-Sep-17 06:00N 30°03' W 093°44'0 0.0
2018-Sep-17 05:30N 30°03' W 093°44'0 0.0
2018-Sep-17 05:03N 30°03' W 093°44'0 0.0
2018-Sep-17 05:00N 30°03' W 093°44'0 0.0
2018-Sep-17 04:31N 30°03' W 093°44'0 0.0
2018-Sep-17 04:03N 30°03' W 093°44'0 0.2
2018-Sep-17 04:00N 30°03' W 093°44'0 0.0
2018-Sep-17 03:30N 30°03' W 093°44'0 0.0
2018-Sep-17 03:03N 30°03' W 093°44'0 0.0
2018-Sep-17 03:00N 30°03' W 093°44'0 0.0
2018-Sep-17 02:31N 30°03' W 093°44'0 0.0
2018-Sep-17 02:03N 30°03' W 093°44'0 0.0
2018-Sep-17 02:00N 30°03' W 093°44'0 0.0
2018-Sep-17 01:31N 30°03' W 093°44'0 0.0
2018-Sep-17 01:03N 30°03' W 093°44'0 0.1
2018-Sep-17 01:00N 30°03' W 093°44'0 0.0
2018-Sep-17 00:31N 30°03' W 093°44'0 0.0
2018-Sep-17 00:04N 30°03' W 093°44'0 0.0
2018-Sep-17 00:00N 30°03' W 093°44'0 0.0
2018-Sep-16 23:30N 30°03' W 093°44'0 0.0
2018-Sep-16 23:03N 30°03' W 093°44'0 0.0
2018-Sep-16 23:00N 30°03' W 093°44'0 0.0
2018-Sep-16 22:31N 30°03' W 093°44'0 0.0
2018-Sep-16 22:03N 30°03' W 093°44'0 0.1
2018-Sep-16 22:00N 30°03' W 093°44'0 0.0
2018-Sep-16 21:30N 30°03' W 093°44'0 0.0
2018-Sep-16 21:03N 30°03' W 093°44'0 0.0
2018-Sep-16 21:00N 30°03' W 093°44'0 0.0
2018-Sep-16 20:30N 30°03' W 093°44'0 0.0
2018-Sep-16 20:03N 30°03' W 093°44'0 0.1
2018-Sep-16 20:00N 30°03' W 093°44'0 0.0
2018-Sep-16 19:30N 30°03' W 093°44'0 0.0
2018-Sep-16 19:03N 30°03' W 093°44'0 0.1
2018-Sep-16 19:00N 30°03' W 093°44'0 0.0
2018-Sep-16 18:30N 30°03' W 093°44'0 0.0
2018-Sep-16 18:03N 30°03' W 093°44'0 0.0
2018-Sep-16 18:00N 30°03' W 093°44'0 0.0
2018-Sep-16 17:30N 30°03' W 093°44'0 0.0
2018-Sep-16 17:03N 30°03' W 093°44'0 0.0
2018-Sep-16 17:00N 30°03' W 093°44'0 0.0
2018-Sep-16 16:30N 30°03' W 093°44'0 0.0
2018-Sep-16 16:03N 30°03' W 093°44'0 0.1
2018-Sep-16 16:00N 30°03' W 093°44'0 0.0
2018-Sep-16 15:30N 30°03' W 093°44'0 0.0
2018-Sep-16 15:04N 30°03' W 093°44'0 0.0
2018-Sep-16 15:00N 30°03' W 093°44'0 0.0
2018-Sep-16 14:03N 30°03' W 093°44'0 0.0
2018-Sep-16 13:30N 30°03' W 093°44'0 0.0
2018-Sep-16 13:03N 30°03' W 093°44'0 0.1
2018-Sep-16 13:00N 30°03' W 093°44'0 0.0
2018-Sep-16 12:29N 30°03' W 093°44'0 0.0
2018-Sep-16 12:03N 30°03' W 093°44'0 0.1
2018-Sep-16 12:00N 30°03' W 093°44'0 0.0
2018-Sep-16 11:30N 30°03' W 093°44'0 0.0
2018-Sep-16 11:03N 30°03' W 093°44'0 0.0
2018-Sep-16 11:00N 30°03' W 093°44'0 0.0
2018-Sep-16 10:30N 30°03' W 093°44'0 0.0
2018-Sep-16 10:03N 30°03' W 093°44'0 0.1
2018-Sep-16 10:00N 30°03' W 093°44'0 0.0
2018-Sep-16 09:30N 30°03' W 093°44'0 0.0
2018-Sep-16 09:03N 30°03' W 093°44'0 0.0
2018-Sep-16 09:00N 30°03' W 093°44'0 0.0
2018-Sep-16 08:30N 30°03' W 093°44'0 0.0
2018-Sep-16 08:03N 30°03' W 093°44'0 0.0
2018-Sep-16 08:00N 30°03' W 093°44'0 0.0
2018-Sep-16 07:30N 30°03' W 093°44'0 0.0
2018-Sep-16 07:03N 30°03' W 093°44'0 0.0
2018-Sep-16 06:59N 30°03' W 093°44'0 0.0
2018-Sep-16 06:30N 30°03' W 093°44'0 0.0
2018-Sep-16 06:03N 30°03' W 093°44'0 0.1
2018-Sep-16 06:00N 30°03' W 093°44'0 0.0
2018-Sep-16 05:30N 30°03' W 093°44'0 0.0
2018-Sep-16 05:03N 30°03' W 093°44'0 0.1
2018-Sep-16 05:00N 30°03' W 093°44'0 0.0
2018-Sep-16 04:30N 30°03' W 093°44'0 0.0
2018-Sep-16 04:03N 30°03' W 093°44'0 0.0
2018-Sep-16 04:00N 30°03' W 093°44'0 0.0
2018-Sep-16 03:30N 30°03' W 093°44'0 0.0
2018-Sep-16 03:03N 30°03' W 093°44'0 0.0
2018-Sep-16 03:00N 30°03' W 093°44'0 0.0
2018-Sep-16 02:30N 30°03' W 093°44'0 0.0
2018-Sep-16 02:03N 30°03' W 093°44'0 0.0
2018-Sep-16 02:00N 30°03' W 093°44'0 0.0
2018-Sep-16 01:30N 30°03' W 093°44'0 0.0
2018-Sep-16 01:03N 30°03' W 093°44'0 0.1
2018-Sep-16 01:00N 30°03' W 093°44'0 0.0
2018-Sep-16 00:30N 30°03' W 093°44'0 0.0
2018-Sep-16 00:03N 30°03' W 093°44'0 0.0
2018-Sep-16 00:00N 30°03' W 093°44'0 0.0
2018-Sep-15 23:30N 30°03' W 093°44'0 0.0
2018-Sep-15 23:03N 30°03' W 093°44'0 0.1
2018-Sep-15 23:00N 30°03' W 093°44'0 0.0
2018-Sep-15 22:30N 30°03' W 093°44'0 0.0
2018-Sep-15 22:03N 30°03' W 093°44'0 0.0
2018-Sep-15 22:00N 30°03' W 093°44'0 0.0
2018-Sep-15 21:30N 30°03' W 093°44'0 0.0
2018-Sep-15 21:03N 30°03' W 093°44'0 0.0
2018-Sep-15 21:00N 30°03' W 093°44'0 0.0
2018-Sep-15 20:30N 30°03' W 093°44'0 0.0
2018-Sep-15 20:03N 30°03' W 093°44'0 0.1
2018-Sep-15 20:00N 30°03' W 093°44'0 0.0
2018-Sep-15 19:30N 30°03' W 093°44'0 0.0
2018-Sep-15 19:03N 30°03' W 093°44'0 0.0
2018-Sep-15 19:00N 30°03' W 093°44'0 0.0
2018-Sep-15 18:30N 30°03' W 093°44'0 0.0
2018-Sep-15 18:04N 30°03' W 093°44'0 0.0
2018-Sep-15 18:00N 30°03' W 093°44'0 0.0
2018-Sep-15 17:30N 30°03' W 093°44'0 0.0
2018-Sep-15 17:03N 30°03' W 093°44'0 0.0
2018-Sep-15 17:00N 30°03' W 093°44'0 0.0
2018-Sep-15 16:29N 30°03' W 093°44'1 1.4
2018-Sep-15 16:03N 30°04' W 093°45'0 0.1
2018-Sep-15 16:00N 30°04' W 093°45'0 0.0
2018-Sep-15 15:30N 30°04' W 093°45'1 1.0
2018-Sep-15 15:01N 30°04' W 093°44'0 0.2
2018-Sep-15 14:30N 30°03' W 093°44'0 0.0
2018-Sep-15 14:00N 30°03' W 093°44'0 0.0
2018-Sep-15 13:30N 30°03' W 093°44'0 0.0
2018-Sep-15 13:03N 30°03' W 093°44'0 0.1
2018-Sep-15 13:00N 30°03' W 093°44'0 0.0
2018-Sep-15 12:30N 30°03' W 093°44'0 0.0
2018-Sep-15 12:03N 30°03' W 093°44'0 0.0
2018-Sep-15 12:00N 30°03' W 093°44'0 0.0
2018-Sep-15 11:30N 30°03' W 093°44'0 0.0
2018-Sep-15 11:03N 30°03' W 093°44'0 0.0
2018-Sep-15 11:00N 30°03' W 093°44'0 0.0
2018-Sep-15 10:30N 30°03' W 093°44'0 0.0
2018-Sep-15 10:03N 30°03' W 093°44'0 0.1
2018-Sep-15 10:00N 30°03' W 093°44'0 0.0
2018-Sep-15 09:30N 30°03' W 093°44'0 0.0
2018-Sep-15 09:04N 30°03' W 093°44'0 0.0
2018-Sep-15 09:00N 30°03' W 093°44'0 0.0
2018-Sep-15 08:30N 30°03' W 093°44'0 0.0
2018-Sep-15 08:03N 30°03' W 093°44'0 0.0
2018-Sep-15 08:00N 30°03' W 093°44'0 0.0
2018-Sep-15 07:31N 30°03' W 093°44'0 0.0
2018-Sep-15 07:03N 30°03' W 093°44'0 0.0
2018-Sep-15 07:00N 30°03' W 093°44'0 0.0
2018-Sep-15 06:30N 30°03' W 093°44'0 0.0
2018-Sep-15 06:03N 30°03' W 093°44'0 0.1
2018-Sep-15 05:59N 30°03' W 093°44'0 0.0
2018-Sep-15 05:30N 30°03' W 093°44'0 0.0
2018-Sep-15 05:03N 30°03' W 093°44'0 0.1
2018-Sep-15 05:00N 30°03' W 093°44'0 0.0
2018-Sep-15 04:30N 30°03' W 093°44'0 0.0
2018-Sep-15 04:03N 30°03' W 093°44'0 0.2
2018-Sep-15 04:00N 30°03' W 093°44'0 0.0
2018-Sep-15 03:30N 30°03' W 093°44'0 0.0
2018-Sep-15 03:03N 30°03' W 093°44'0 0.0
2018-Sep-15 03:00N 30°03' W 093°44'0 0.0
2018-Sep-15 02:30N 30°03' W 093°44'0 0.0
2018-Sep-15 02:01N 30°03' W 093°44'0 0.2
2018-Sep-15 02:00N 30°03' W 093°44'0 0.0
2018-Sep-15 01:30N 30°03' W 093°44'0 0.0
2018-Sep-15 01:04N 30°03' W 093°44'0 0.1
2018-Sep-15 01:01N 30°03' W 093°44'0 0.0
2018-Sep-15 00:30N 30°03' W 093°44'0 0.0
2018-Sep-15 00:03N 30°03' W 093°44'0 0.1
2018-Sep-15 00:00N 30°03' W 093°44'1 2.4
2018-Sep-14 23:30N 30°02' W 093°44'3 5.6
2018-Sep-14 23:03N 30°00' W 093°46'0 5.9
2018-Sep-14 23:00N 30°00' W 093°46'3 5.7
2018-Sep-14 22:30N 29°59' W 093°49'2 5.5
2018-Sep-14 22:03N 29°57' W 093°52'0 6.2
2018-Sep-14 22:00N 29°57' W 093°52'2 4.3
2018-Sep-14 21:30N 29°55' W 093°53'0 0.0
2018-Sep-14 21:03N 29°55' W 093°53'0 0.0
2018-Sep-14 21:00N 29°55' W 093°53'0 0.0
2018-Sep-14 20:30N 29°55' W 093°53'0 0.0
2018-Sep-14 20:03N 29°55' W 093°53'0 0.0
2018-Sep-14 20:00N 29°55' W 093°53'0 0.0
2018-Sep-14 19:30N 29°55' W 093°53'0 0.0
2018-Sep-14 19:03N 29°55' W 093°53'0 0.0
2018-Sep-14 19:01N 29°55' W 093°53'0 0.0
2018-Sep-14 18:30N 29°55' W 093°53'0 0.0
2018-Sep-14 18:03N 29°55' W 093°53'0 0.0
2018-Sep-14 18:01N 29°55' W 093°53'0 0.0
2018-Sep-14 17:30N 29°55' W 093°53'0 0.0
2018-Sep-14 17:03N 29°55' W 093°53'0 0.0
2018-Sep-14 17:00N 29°55' W 093°53'0 0.0
2018-Sep-14 16:30N 29°55' W 093°53'0 0.0
2018-Sep-14 16:03N 29°55' W 093°53'0 0.1
2018-Sep-14 16:00N 29°55' W 093°53'0 0.0
2018-Sep-14 15:31N 29°55' W 093°53'0 0.0
2018-Sep-14 15:03N 29°55' W 093°53'0 0.1
2018-Sep-14 15:00N 29°55' W 093°53'0 0.0
2018-Sep-14 14:30N 29°55' W 093°53'0 0.0
2018-Sep-14 14:00N 29°55' W 093°53'0 0.0
2018-Sep-14 13:31N 29°55' W 093°53'0 0.0
2018-Sep-14 13:03N 29°55' W 093°53'0 0.0
2018-Sep-14 13:00N 29°55' W 093°53'0 0.8
2018-Sep-14 12:30N 29°55' W 093°53'3 7.1
2018-Sep-14 12:04N 29°53' W 093°56'0 6.8
2018-Sep-14 12:00N 29°52' W 093°56'3 6.2
2018-Sep-14 11:30N 29°50' W 093°58'2 4.8
2018-Sep-14 11:03N 29°49' W 093°60'0 6.2
2018-Sep-14 11:00N 29°48' W 094°00'3 6.5
2018-Sep-14 10:30N 29°46' W 094°03'2 5.5
2018-Sep-14 10:04N 29°45' W 094°05'0 6.5
2018-Sep-14 10:00N 29°44' W 094°05'3 6.5
2018-Sep-14 09:30N 29°42' W 094°08'3 6.1
2018-Sep-14 09:04N 29°41' W 094°11'0 6.1
2018-Sep-14 09:00N 29°41' W 094°11'3 6.1
2018-Sep-14 08:31N 29°40' W 094°14'3 6.0
2018-Sep-14 08:03N 29°38' W 094°17'0 5.9
2018-Sep-14 08:00N 29°38' W 094°18'3 5.9
2018-Sep-14 07:31N 29°37' W 094°21'3 5.8
2018-Sep-14 07:03N 29°36' W 094°23'1 5.7
2018-Sep-14 06:56N 29°36' W 094°24'2 5.0
2018-Sep-14 06:30N 29°34' W 094°25'3 5.7
2018-Sep-14 05:58N 29°33' W 094°28'20 4.4
2018-Sep-14 01:32N 29°22' W 094°47'0 6.4
2018-Sep-14 01:29N 29°22' W 094°48'3 5.1
2018-Sep-14 00:54N 29°25' W 094°49'3 6.5
2018-Sep-14 00:25N 29°27' W 094°51'2 6.8
2018-Sep-14 00:03N 29°30' W 094°52'0 6.7
2018-Sep-14 00:00N 29°30' W 094°52'4 7.1
2018-Sep-13 23:30N 29°33' W 094°54'3 7.1
2018-Sep-13 23:04N 29°35' W 094°57'0 7.1
2018-Sep-13 23:01N 29°36' W 094°57'3 6.0
2018-Sep-13 22:31N 29°37' W 095°00'1 2.1
2018-Sep-13 22:04N 29°36' W 095°01'0 0.0
2018-Sep-13 22:00N 29°36' W 095°01'0 0.1
2018-Sep-13 21:30N 29°36' W 095°01'0 0.0
2018-Sep-13 21:03N 29°36' W 095°01'0 0.1
2018-Sep-13 21:00N 29°36' W 095°01'0 0.0
2018-Sep-13 20:30N 29°36' W 095°01'0 0.0
2018-Sep-13 19:57N 29°36' W 095°01'0 0.0
2018-Sep-13 19:31N 29°36' W 095°01'0 0.0
2018-Sep-13 19:03N 29°36' W 095°01'0 0.0
2018-Sep-13 19:00N 29°36' W 095°01'0 0.0
2018-Sep-13 18:29N 29°36' W 095°01'0 0.0
2018-Sep-13 18:04N 29°36' W 095°01'0 0.0
2018-Sep-13 18:00N 29°36' W 095°01'0 0.0
2018-Sep-13 17:30N 29°36' W 095°01'0 0.0
2018-Sep-13 17:03N 29°36' W 095°01'0 0.0
2018-Sep-13 17:00N 29°36' W 095°01'0 0.0
2018-Sep-13 16:30N 29°36' W 095°01'0 0.0
2018-Sep-13 16:01N 29°36' W 095°01'0 0.0
2018-Sep-13 16:00N 29°36' W 095°01'0 0.0
2018-Sep-13 15:29N 29°36' W 095°01'0 0.0
2018-Sep-13 15:03N 29°36' W 095°01'0 0.0
2018-Sep-13 15:00N 29°36' W 095°01'0 0.0
2018-Sep-13 14:03N 29°36' W 095°01'0 0.1
2018-Sep-13 13:59N 29°36' W 095°01'0 0.0
2018-Sep-13 13:27N 29°36' W 095°01'0 0.0
2018-Sep-13 13:04N 29°36' W 095°01'0 0.0
2018-Sep-13 12:49N 29°36' W 095°01'0 0.0
2018-Sep-13 12:27N 29°36' W 095°01'0 0.0
2018-Sep-13 12:03N 29°36' W 095°01'0 0.0
2018-Sep-13 12:00N 29°36' W 095°01'0 0.0
2018-Sep-13 11:30N 29°36' W 095°01'0 0.0
2018-Sep-13 11:04N 29°36' W 095°01'0 0.1
2018-Sep-13 11:01N 29°36' W 095°01'0 0.0
2018-Sep-13 10:30N 29°36' W 095°01'0 0.0
2018-Sep-13 10:03N 29°36' W 095°01'0 0.1
2018-Sep-13 09:58N 29°36' W 095°01'0 0.0
2018-Sep-13 09:26N 29°36' W 095°01'0 0.0
2018-Sep-13 09:03N 29°36' W 095°01'0 0.0
2018-Sep-13 09:00N 29°36' W 095°01'0 0.0
2018-Sep-13 08:30N 29°36' W 095°01'0 0.0
2018-Sep-13 08:03N 29°36' W 095°01'0 0.0
2018-Sep-13 08:00N 29°36' W 095°01'0 0.0
2018-Sep-13 07:30N 29°36' W 095°01'0 0.0
2018-Sep-13 07:03N 29°36' W 095°01'0 0.0
2018-Sep-13 07:00N 29°36' W 095°01'0 0.0
2018-Sep-13 06:30N 29°36' W 095°01'0 0.0
2018-Sep-13 06:03N 29°36' W 095°01'0 0.1
2018-Sep-13 06:00N 29°36' W 095°01'0 0.0
2018-Sep-13 05:30N 29°36' W 095°01'0 0.0
2018-Sep-13 05:03N 29°36' W 095°01'0 0.0
2018-Sep-13 05:00N 29°36' W 095°01'0 0.0
2018-Sep-13 04:30N 29°36' W 095°01'0 0.0
2018-Sep-13 04:03N 29°36' W 095°01'0 0.0
2018-Sep-13 04:00N 29°36' W 095°01'0 0.0
2018-Sep-13 03:30N 29°36' W 095°01'0 0.0
2018-Sep-13 03:03N 29°36' W 095°01'0 0.2
2018-Sep-13 03:00N 29°36' W 095°01'0 0.0
2018-Sep-13 02:30N 29°36' W 095°01'0 0.0
2018-Sep-13 02:03N 29°36' W 095°01'0 0.0
2018-Sep-13 02:00N 29°36' W 095°01'0 0.0
2018-Sep-13 01:30N 29°36' W 095°01'0 0.0
2018-Sep-13 01:03N 29°36' W 095°01'0 0.1
2018-Sep-13 01:00N 29°36' W 095°01'0 0.2
2018-Sep-13 00:30N 29°37' W 095°01'0 0.7
2018-Sep-13 00:03N 29°37' W 095°01'0 5.3
2018-Sep-13 00:00N 29°37' W 095°01'3 5.9
2018-Sep-12 23:30N 29°37' W 094°57'3 6.6
2018-Sep-12 23:01N 29°34' W 094°55'0 6.5
2018-Sep-12 23:00N 29°34' W 094°55'3 6.8
2018-Sep-12 22:30N 29°31' W 094°53'3 6.8
2018-Sep-12 22:03N 29°28' W 094°51'0 6.7
2018-Sep-12 22:00N 29°28' W 094°51'13 3.7
2018-Sep-12 18:28N 29°29' W 094°36'3 6.0
2018-Sep-12 18:03N 29°30' W 094°33'0 5.9
2018-Sep-12 18:00N 29°30' W 094°33'3 6.0
2018-Sep-12 17:30N 29°31' W 094°30'3 5.9
2018-Sep-12 16:55N 29°34' W 094°27'2 5.1
2018-Sep-12 16:26N 29°35' W 094°25'1 3.2
2018-Sep-12 16:03N 29°36' W 094°24'0 4.1
2018-Sep-12 15:58N 29°36' W 094°23'3 6.0
2018-Sep-12 15:30N 29°37' W 094°20'3 6.4
2018-Sep-12 15:02N 29°38' W 094°17'0 6.3
2018-Sep-12 15:00N 29°38' W 094°17'3 6.3
2018-Sep-12 14:30N 29°40' W 094°14'3 6.3
2018-Sep-12 14:00N 29°41' W 094°11'3 6.1
2018-Sep-12 13:30N 29°43' W 094°08'3 6.4
2018-Sep-12 13:03N 29°44' W 094°05'0 6.4
2018-Sep-12 13:00N 29°45' W 094°05'3 6.5
2018-Sep-12 12:30N 29°47' W 094°02'3 6.4
2018-Sep-12 12:03N 29°49' W 093°60'0 5.9
2018-Sep-12 12:00N 29°49' W 093°59'1 2.3
2018-Sep-12 11:30N 29°49' W 093°58'0 0.0
2018-Sep-12 11:03N 29°49' W 093°58'0 0.1
2018-Sep-12 11:00N 29°49' W 093°58'0 0.0
2018-Sep-12 10:30N 29°49' W 093°58'0 0.0
2018-Sep-12 10:03N 29°49' W 093°58'0 0.0
2018-Sep-12 10:00N 29°49' W 093°58'0 0.0
2018-Sep-12 09:30N 29°49' W 093°58'0 0.0
2018-Sep-12 09:03N 29°49' W 093°58'0 0.0
2018-Sep-12 09:00N 29°49' W 093°58'0 0.0
2018-Sep-12 08:30N 29°49' W 093°58'0 0.0
2018-Sep-12 08:03N 29°49' W 093°58'0 0.1
2018-Sep-12 08:00N 29°49' W 093°58'0 0.0
2018-Sep-12 07:30N 29°49' W 093°58'0 0.0
2018-Sep-12 07:03N 29°49' W 093°58'0 0.0
2018-Sep-12 07:00N 29°49' W 093°58'0 0.0
2018-Sep-12 06:30N 29°49' W 093°58'0 0.0
2018-Sep-12 06:03N 29°49' W 093°58'0 1.0
2018-Sep-12 06:00N 29°49' W 093°58'2 3.8
2018-Sep-12 05:30N 29°51' W 093°57'3 7.0
2018-Sep-12 05:03N 29°54' W 093°55'0 7.0
2018-Sep-12 05:00N 29°54' W 093°54'3 6.9
2018-Sep-12 04:30N 29°56' W 093°52'2 5.1
2018-Sep-12 04:03N 29°58' W 093°51'0 2.4
2018-Sep-12 04:00N 29°58' W 093°50'3 6.0
2018-Sep-12 03:29N 29°60' W 093°47'3 6.1
2018-Sep-12 03:03N 30°01' W 093°45'0 5.8
2018-Sep-12 03:00N 30°02' W 093°44'2 3.6
2018-Sep-12 02:30N 30°03' W 093°44'0 0.3
2018-Sep-12 02:03N 30°03' W 093°44'0 0.0
2018-Sep-12 01:59N 30°03' W 093°44'0 0.1
2018-Sep-12 01:30N 30°03' W 093°44'0 0.0
2018-Sep-12 01:03N 30°03' W 093°44'0 0.1
2018-Sep-12 01:00N 30°03' W 093°44'0 0.0
2018-Sep-12 00:30N 30°03' W 093°44'0 0.0
2018-Sep-12 00:03N 30°03' W 093°44'0 0.0
2018-Sep-12 00:00N 30°03' W 093°44'0 0.0
2018-Sep-11 23:30N 30°03' W 093°44'0 0.0
2018-Sep-11 23:02N 30°03' W 093°44'0 0.1
2018-Sep-11 23:00N 30°03' W 093°44'0 0.0
2018-Sep-11 22:30N 30°03' W 093°44'0 0.0
2018-Sep-11 22:03N 30°03' W 093°44'0 0.1
2018-Sep-11 22:00N 30°03' W 093°44'0 0.0
2018-Sep-11 21:30N 30°03' W 093°44'0 0.0
2018-Sep-11 21:03N 30°03' W 093°44'0 0.1
2018-Sep-11 21:00N 30°03' W 093°44'0 0.0
2018-Sep-11 20:30N 30°03' W 093°44'0 0.0
2018-Sep-11 20:03N 30°03' W 093°44'0 0.1
2018-Sep-11 20:00N 30°03' W 093°44'0 0.0
2018-Sep-11 19:30N 30°03' W 093°44'0 0.0
2018-Sep-11 19:03N 30°03' W 093°44'0 0.1
2018-Sep-11 19:00N 30°03' W 093°44'0 0.0
2018-Sep-11 18:30N 30°03' W 093°44'0 0.0
2018-Sep-11 18:03N 30°03' W 093°44'0 0.1
2018-Sep-11 18:00N 30°03' W 093°44'0 0.0
2018-Sep-11 17:30N 30°03' W 093°44'0 0.0
2018-Sep-11 17:03N 30°03' W 093°44'0 0.0
2018-Sep-11 17:00N 30°03' W 093°44'0 0.0
2018-Sep-11 16:30N 30°03' W 093°44'0 0.0
2018-Sep-11 16:03N 30°03' W 093°44'0 0.1
2018-Sep-11 16:00N 30°03' W 093°44'0 0.0
2018-Sep-11 15:30N 30°03' W 093°44'0 0.0
2018-Sep-11 15:03N 30°03' W 093°44'0 0.2
2018-Sep-11 15:00N 30°03' W 093°44'0 0.0
2018-Sep-11 14:30N 30°03' W 093°44'0 0.0
2018-Sep-11 13:16N 30°03' W 093°44'0 0.0
2018-Sep-11 13:03N 30°03' W 093°44'0 0.1
2018-Sep-11 13:00N 30°03' W 093°44'0 0.0
2018-Sep-11 12:30N 30°03' W 093°44'0 0.0
2018-Sep-11 12:03N 30°03' W 093°44'0 0.0
2018-Sep-11 12:00N 30°03' W 093°44'0 0.0
2018-Sep-11 11:30N 30°03' W 093°44'0 0.0
2018-Sep-11 11:03N 30°03' W 093°44'0 0.0
2018-Sep-11 11:00N 30°03' W 093°44'0 0.0
2018-Sep-11 10:30N 30°03' W 093°44'0 0.0
2018-Sep-11 10:04N 30°03' W 093°44'0 0.0
2018-Sep-11 10:00N 30°03' W 093°44'0 0.0
2018-Sep-11 09:30N 30°03' W 093°44'0 0.0
2018-Sep-11 09:03N 30°03' W 093°44'0 0.0
2018-Sep-11 09:00N 30°03' W 093°44'0 0.0
2018-Sep-11 08:30N 30°03' W 093°44'0 0.0
2018-Sep-11 08:03N 30°03' W 093°44'0 0.0
2018-Sep-11 08:00N 30°03' W 093°44'0 0.0
2018-Sep-11 07:30N 30°03' W 093°44'0 0.0
2018-Sep-11 07:03N 30°03' W 093°44'0 0.1
2018-Sep-11 07:00N 30°03' W 093°44'0 0.0
2018-Sep-11 06:30N 30°03' W 093°44'0 0.0
2018-Sep-11 06:03N 30°03' W 093°44'0 0.0
2018-Sep-11 05:20N 30°03' W 093°44'0 0.0
2018-Sep-11 05:03N 30°03' W 093°44'0 0.0
2018-Sep-11 05:00N 30°03' W 093°44'0 0.0
2018-Sep-11 04:30N 30°03' W 093°44'0 0.0
2018-Sep-11 04:04N 30°03' W 093°44'0 0.0
2018-Sep-11 04:00N 30°03' W 093°44'0 0.0
2018-Sep-11 03:31N 30°03' W 093°44'0 0.0
2018-Sep-11 03:04N 30°03' W 093°44'0 0.0
2018-Sep-11 03:01N 30°03' W 093°44'0 0.0
2018-Sep-11 02:30N 30°03' W 093°44'0 0.0
2018-Sep-11 02:03N 30°03' W 093°44'0 0.0
2018-Sep-11 02:00N 30°03' W 093°44'0 0.0
2018-Sep-11 01:30N 30°03' W 093°44'0 0.0
2018-Sep-11 01:03N 30°03' W 093°44'0 0.1
2018-Sep-11 01:00N 30°03' W 093°44'0 0.1
2018-Sep-11 00:30N 30°03' W 093°44'1 1.5
2018-Sep-11 00:02N 30°04' W 093°45'0 0.0
2018-Sep-11 00:00N 30°04' W 093°45'0 0.0
2018-Sep-10 23:29N 30°04' W 093°45'0 0.0
2018-Sep-10 23:03N 30°04' W 093°45'0 0.0
2018-Sep-10 23:00N 30°04' W 093°45'0 0.0
2018-Sep-10 22:30N 30°04' W 093°45'0 0.0
2018-Sep-10 22:03N 30°04' W 093°45'0 0.0
2018-Sep-10 22:00N 30°04' W 093°45'1 1.5
2018-Sep-10 21:30N 30°03' W 093°44'0 0.0
2018-Sep-10 20:57N 30°03' W 093°44'0 0.0
2018-Sep-10 20:30N 30°03' W 093°44'0 0.0
2018-Sep-10 20:03N 30°03' W 093°44'0 0.0
2018-Sep-10 20:00N 30°03' W 093°44'0 0.0
2018-Sep-10 19:30N 30°03' W 093°44'0 0.0
2018-Sep-10 19:04N 30°03' W 093°44'0 0.0
2018-Sep-10 19:01N 30°03' W 093°44'0 0.0
2018-Sep-10 18:30N 30°03' W 093°44'0 0.0
2018-Sep-10 18:04N 30°03' W 093°44'0 0.0
2018-Sep-10 18:00N 30°03' W 093°44'0 0.0
2018-Sep-10 17:30N 30°03' W 093°44'0 0.0
2018-Sep-10 17:03N 30°03' W 093°44'0 0.0
2018-Sep-10 17:00N 30°03' W 093°44'0 0.0
2018-Sep-10 16:30N 30°03' W 093°44'0 0.0
2018-Sep-10 16:04N 30°03' W 093°44'0 0.0
2018-Sep-10 16:00N 30°03' W 093°44'0 0.0
2018-Sep-10 15:30N 30°03' W 093°44'0 0.0
2018-Sep-10 15:03N 30°03' W 093°44'0 0.0
2018-Sep-10 15:00N 30°03' W 093°44'0 0.0
2018-Sep-10 14:30N 30°03' W 093°44'0 0.0
2018-Sep-10 14:00N 30°03' W 093°44'0 0.0
2018-Sep-10 13:30N 30°03' W 093°44'0 0.0
2018-Sep-10 13:03N 30°03' W 093°44'0 0.0
2018-Sep-10 13:00N 30°03' W 093°44'0 0.0
2018-Sep-10 12:30N 30°03' W 093°44'0 0.0
2018-Sep-10 12:03N 30°03' W 093°44'0 0.0
2018-Sep-10 12:00N 30°03' W 093°44'0 0.0
2018-Sep-10 11:31N 30°03' W 093°44'0 0.0
2018-Sep-10 11:04N 30°03' W 093°44'0 0.0
2018-Sep-10 11:00N 30°03' W 093°44'0 0.0
2018-Sep-10 10:30N 30°03' W 093°44'0 0.0
2018-Sep-10 10:03N 30°03' W 093°44'0 0.0
2018-Sep-10 10:00N 30°03' W 093°44'0 0.0
2018-Sep-10 09:30N 30°03' W 093°44'0 0.0
2018-Sep-10 09:03N 30°03' W 093°44'0 0.0
2018-Sep-10 09:01N 30°03' W 093°44'0 0.0
2018-Sep-10 08:29N 30°03' W 093°44'0 0.0
2018-Sep-10 08:03N 30°03' W 093°44'0 0.0
2018-Sep-10 08:01N 30°03' W 093°44'0 0.0
2018-Sep-10 07:30N 30°03' W 093°44'0 0.0
2018-Sep-10 07:03N 30°03' W 093°44'0 0.0
2018-Sep-10 07:00N 30°03' W 093°44'0 0.0
2018-Sep-10 06:30N 30°03' W 093°44'0 0.0
2018-Sep-10 06:03N 30°03' W 093°44'0 0.0
2018-Sep-10 06:00N 30°03' W 093°44'0 0.0
2018-Sep-10 05:30N 30°03' W 093°44'0 0.0
2018-Sep-10 05:03N 30°03' W 093°44'0 0.0
2018-Sep-10 05:01N 30°03' W 093°44'0 0.0
2018-Sep-10 04:30N 30°03' W 093°44'0 0.0
2018-Sep-10 04:03N 30°03' W 093°44'0 0.0
2018-Sep-10 04:00N 30°03' W 093°44'0 0.0
2018-Sep-10 03:30N 30°03' W 093°44'0 0.0
2018-Sep-10 03:03N 30°03' W 093°44'0 0.0
2018-Sep-10 03:00N 30°03' W 093°44'0 0.0
2018-Sep-10 02:30N 30°03' W 093°44'0 0.0
2018-Sep-10 02:03N 30°03' W 093°44'0 0.0
2018-Sep-10 02:00N 30°03' W 093°44'0 0.0
2018-Sep-10 01:31N 30°03' W 093°44'0 0.0
2018-Sep-10 01:03N 30°03' W 093°44'0 0.0
2018-Sep-10 00:59N 30°03' W 093°44'0 0.0
2018-Sep-10 00:30N 30°03' W 093°44'0 0.0
2018-Sep-10 00:03N 30°03' W 093°44'0 0.1
2018-Sep-10 00:00N 30°03' W 093°44'1 1.5
2018-Sep-09 23:31N 30°04' W 093°45'0 0.0
2018-Sep-09 23:03N 30°04' W 093°45'0 0.0
2018-Sep-09 23:00N 30°04' W 093°45'0 0.0
2018-Sep-09 22:30N 30°04' W 093°45'0 0.0
2018-Sep-09 22:03N 30°04' W 093°45'0 0.0
2018-Sep-09 21:58N 30°04' W 093°45'1 1.5
2018-Sep-09 21:30N 30°03' W 093°44'0 0.1
2018-Sep-09 21:03N 30°03' W 093°44'0 0.0
2018-Sep-09 21:00N 30°03' W 093°44'0 0.0
2018-Sep-09 20:31N 30°03' W 093°44'0 0.0
2018-Sep-09 20:04N 30°03' W 093°44'0 0.1
2018-Sep-09 20:00N 30°03' W 093°44'0 0.0
2018-Sep-09 19:30N 30°03' W 093°44'0 0.0
2018-Sep-09 19:03N 30°03' W 093°44'0 0.0
2018-Sep-09 19:00N 30°03' W 093°44'0 0.0
2018-Sep-09 18:31N 30°03' W 093°44'0 0.0
2018-Sep-09 18:03N 30°03' W 093°44'0 0.0
2018-Sep-09 18:00N 30°03' W 093°44'0 0.0
2018-Sep-09 17:30N 30°03' W 093°44'0 0.0
2018-Sep-09 17:03N 30°03' W 093°44'0 0.0
2018-Sep-09 17:00N 30°03' W 093°44'0 0.0
2018-Sep-09 16:30N 30°03' W 093°44'0 0.0
2018-Sep-09 16:04N 30°03' W 093°44'0 0.1
2018-Sep-09 16:01N 30°03' W 093°44'0 0.0
2018-Sep-09 15:30N 30°03' W 093°44'0 0.0
2018-Sep-09 15:03N 30°03' W 093°44'0 0.0
2018-Sep-09 15:00N 30°03' W 093°44'0 0.0
2018-Sep-09 14:03N 30°03' W 093°44'0 0.0
2018-Sep-09 14:00N 30°03' W 093°44'0 0.0
2018-Sep-09 13:29N 30°03' W 093°44'0 0.0
2018-Sep-09 13:03N 30°03' W 093°44'0 0.1
2018-Sep-09 13:00N 30°03' W 093°44'0 0.0
2018-Sep-09 12:30N 30°03' W 093°44'0 0.0
2018-Sep-09 12:03N 30°03' W 093°44'0 0.0
2018-Sep-09 12:00N 30°03' W 093°44'0 0.0
2018-Sep-09 11:30N 30°03' W 093°44'0 0.0
2018-Sep-09 11:03N 30°03' W 093°44'0 0.0
2018-Sep-09 11:00N 30°03' W 093°44'0 0.0
2018-Sep-09 10:31N 30°03' W 093°44'0 0.0
2018-Sep-09 10:03N 30°03' W 093°44'0 0.1
2018-Sep-09 10:00N 30°03' W 093°44'0 0.0
2018-Sep-09 09:30N 30°03' W 093°44'0 0.0
2018-Sep-09 09:04N 30°03' W 093°44'0 0.0
2018-Sep-09 09:00N 30°03' W 093°44'0 0.0
2018-Sep-09 08:31N 30°03' W 093°44'0 0.0
2018-Sep-09 08:03N 30°03' W 093°44'0 0.1
2018-Sep-09 08:01N 30°03' W 093°44'0 0.0
2018-Sep-09 07:30N 30°03' W 093°44'  

Dump ship's entire track history